createdAt,value
2018-10-16T00:00:37.471Z,0
2018-10-16T00:01:47.532Z,0
2018-10-16T00:02:57.653Z,0
2018-10-16T00:04:07.700Z,0
2018-10-16T00:05:17.488Z,0
2018-10-16T00:06:27.789Z,0
2018-10-16T00:07:37.820Z,0
2018-10-16T00:08:47.282Z,0
2018-10-16T00:09:57.026Z,0
2018-10-16T00:11:07.061Z,0
2018-10-16T00:12:17.107Z,0
2018-10-16T00:13:27.153Z,0
2018-10-16T00:14:37.153Z,0
2018-10-16T00:15:47.175Z,0
2018-10-16T00:16:56.910Z,0
2018-10-16T00:18:06.967Z,0
2018-10-16T00:19:17.269Z,0
2018-10-16T00:20:26.742Z,0
2018-10-16T00:21:36.766Z,0
2018-10-16T00:22:46.779Z,0
2018-10-16T00:23:57.139Z,0
2018-10-16T00:25:06.328Z,0
2018-10-16T00:26:16.393Z,0
2018-10-16T00:27:26.427Z,0
2018-10-16T00:28:36.460Z,0
2018-10-16T00:29:46.210Z,0
2018-10-16T00:30:55.959Z,0
2018-10-16T00:32:06.008Z,0
2018-10-16T00:33:16.318Z,0
2018-10-16T00:34:26.341Z,0
2018-10-16T00:35:36.076Z,0
2018-10-16T00:36:46.410Z,0
2018-10-16T00:37:55.864Z,0
2018-10-16T00:39:05.890Z,0
2018-10-16T00:40:15.927Z,0
2018-10-16T00:41:25.669Z,0
2018-10-16T00:42:35.421Z,0
2018-10-16T00:43:45.467Z,0
2018-10-16T00:44:54.932Z,0
2018-10-16T00:46:04.703Z,0
2018-10-16T00:47:14.725Z,0
2018-10-16T00:48:24.730Z,0
2018-10-16T00:49:33.618Z,0
2018-10-16T00:50:43.645Z,0
2018-10-16T00:51:53.650Z,0
2018-10-16T00:53:03.392Z,0
2018-10-16T00:54:12.847Z,0
2018-10-16T00:55:23.150Z,0
2018-10-16T00:56:32.912Z,0
2018-10-16T00:57:42.933Z,0
2018-10-16T00:58:53.264Z,0
2018-10-16T01:00:03.015Z,0
2018-10-16T01:01:12.519Z,0
2018-10-16T01:02:22.559Z,0
2018-10-16T01:03:32.024Z,0
2018-10-16T01:04:42.043Z,0
2018-10-16T01:05:51.785Z,0
2018-10-16T01:07:02.153Z,0
2018-10-16T01:08:12.199Z,0
2018-10-16T01:09:21.978Z,0
2018-10-16T01:10:31.439Z,0
2018-10-16T01:11:41.203Z,0
2018-10-16T01:12:51.537Z,0
2018-10-16T01:14:00.984Z,0
2018-10-16T01:15:11.031Z,0
2018-10-16T01:16:20.770Z,0
2018-10-16T01:17:31.074Z,0
2018-10-16T01:18:40.543Z,0
2018-10-16T01:19:50.888Z,0
2018-10-16T01:21:01.186Z,0
2018-10-16T01:22:10.926Z,0
2018-10-16T01:23:20.679Z,0
2018-10-16T01:24:30.427Z,0
2018-10-16T01:25:40.478Z,0
2018-10-16T01:26:50.900Z,0
2018-10-16T01:28:00.949Z,0
2018-10-16T01:29:10.978Z,0
2018-10-16T01:30:21.046Z,0
2018-10-16T01:31:31.080Z,0
2018-10-16T01:32:41.393Z,0
2018-10-16T01:33:51.476Z,0
2018-10-16T01:35:01.800Z,0
2018-10-16T01:36:11.840Z,0
2018-10-16T01:37:21.872Z,0
2018-10-16T01:38:31.938Z,0
2018-10-16T01:39:41.976Z,0
2018-10-16T01:40:51.996Z,0
2018-10-16T01:42:01.731Z,0
2018-10-16T01:43:11.476Z,0
2018-10-16T01:44:21.233Z,0
2018-10-16T01:45:31.002Z,0
2018-10-16T01:46:41.042Z,0
2018-10-16T01:47:50.791Z,0
2018-10-16T01:49:00.826Z,0
2018-10-16T01:50:10.283Z,0
2018-10-16T01:51:20.033Z,0
2018-10-16T01:52:30.082Z,0
2018-10-16T01:53:40.106Z,0
2018-10-16T01:54:50.136Z,0
2018-10-16T01:56:00.209Z,0
2018-10-16T01:57:09.924Z,0
2018-10-16T01:58:20.232Z,0
2018-10-16T01:59:30.023Z,0
2018-10-16T02:00:39.748Z,0
2018-10-16T02:01:50.057Z,0
2018-10-16T02:03:00.100Z,0
2018-10-16T02:04:09.569Z,0
2018-10-16T02:05:19.888Z,0
2018-10-16T02:06:30.192Z,0
2018-10-16T02:07:40.241Z,0
2018-10-16T02:08:50.008Z,0
2018-10-16T02:10:00.066Z,0
2018-10-16T02:11:10.087Z,0
2018-10-16T02:12:19.827Z,0
2018-10-16T02:13:29.912Z,0
2018-10-16T02:14:39.740Z,0
2018-10-16T02:15:49.422Z,0
2018-10-16T02:16:59.177Z,0
2018-10-16T02:18:09.220Z,0
2018-10-16T02:19:19.519Z,0
2018-10-16T02:20:29.547Z,0
2018-10-16T02:21:39.585Z,0
2018-10-16T02:22:49.933Z,0
2018-10-16T02:23:59.397Z,0
2018-10-16T02:25:09.481Z,0
2018-10-16T02:26:19.808Z,0
2018-10-16T02:27:30.143Z,0
2018-10-16T02:28:40.183Z,0
2018-10-16T02:29:50.245Z,0
2018-10-16T02:31:00.030Z,0
2018-10-16T02:32:10.091Z,0
2018-10-16T02:33:20.201Z,0
2018-10-16T02:34:29.946Z,0
2018-10-16T02:35:39.436Z,0
2018-10-16T02:36:49.772Z,0
2018-10-16T02:37:59.814Z,0
2018-10-16T02:39:10.133Z,0
2018-10-16T02:40:19.958Z,0
2018-10-16T02:41:29.995Z,0
2018-10-16T02:42:39.525Z,0
2018-10-16T02:43:49.560Z,0
2018-10-16T02:44:58.740Z,0
2018-10-16T02:46:08.807Z,0
2018-10-16T02:47:18.863Z,0
2018-10-16T02:48:29.280Z,0
2018-10-16T02:49:39.307Z,0
2018-10-16T02:50:49.352Z,0
2018-10-16T02:51:59.131Z,0
2018-10-16T02:53:08.891Z,0
2018-10-16T02:54:18.665Z,0
2018-10-16T02:55:28.714Z,0
2018-10-16T02:56:38.484Z,0
2018-10-16T02:57:48.227Z,0
2018-10-16T02:58:57.672Z,0
2018-10-16T03:00:07.756Z,0
2018-10-16T03:01:18.096Z,0
2018-10-16T03:02:28.410Z,0
2018-10-16T03:03:38.478Z,0
2018-10-16T03:04:48.791Z,0
2018-10-16T03:05:58.357Z,0
2018-10-16T03:07:07.777Z,0
2018-10-16T03:08:17.810Z,0
2018-10-16T03:09:27.591Z,0
2018-10-16T03:10:37.680Z,0
2018-10-16T03:11:47.134Z,0
2018-10-16T03:12:57.457Z,0
2018-10-16T03:14:07.491Z,0
2018-10-16T03:15:17.817Z,0
2018-10-16T03:16:27.571Z,0
2018-10-16T03:17:37.356Z,0
2018-10-16T03:18:47.104Z,0
2018-10-16T03:19:55.993Z,0
2018-10-16T03:21:05.457Z,0
2018-10-16T03:22:15.512Z,0
2018-10-16T03:23:24.977Z,0
2018-10-16T03:24:35.038Z,0
2018-10-16T03:25:45.100Z,0
2018-10-16T03:26:55.121Z,0
2018-10-16T03:28:05.174Z,0
2018-10-16T03:29:15.205Z,0
2018-10-16T03:30:24.981Z,0
2018-10-16T03:31:35.040Z,0
2018-10-16T03:32:45.362Z,0
2018-10-16T03:33:54.552Z,0
2018-10-16T03:35:04.320Z,0
2018-10-16T03:36:13.787Z,0
2018-10-16T03:37:23.843Z,0
2018-10-16T03:38:34.164Z,0
2018-10-16T03:39:43.908Z,0
2018-10-16T03:40:53.664Z,0
2018-10-16T03:42:03.990Z,0
2018-10-16T03:43:13.735Z,0
2018-10-16T03:44:24.048Z,0
2018-10-16T03:45:34.098Z,0
2018-10-16T03:46:44.414Z,0
2018-10-16T03:47:55.022Z,0
2018-10-16T03:49:04.789Z,0
2018-10-16T03:50:14.814Z,0
2018-10-16T03:51:24.304Z,0
2018-10-16T03:52:34.354Z,0
2018-10-16T03:53:43.825Z,0
2018-10-16T03:54:54.123Z,0
2018-10-16T03:56:04.160Z,0
2018-10-16T03:57:14.766Z,0
2018-10-16T03:58:24.595Z,0
2018-10-16T03:59:34.355Z,0
2018-10-16T04:00:44.660Z,0
2018-10-16T04:01:54.975Z,0
2018-10-16T04:03:04.716Z,0
2018-10-16T04:04:14.469Z,0
2018-10-16T04:05:24.500Z,0
2018-10-16T04:06:34.544Z,0
2018-10-16T04:07:43.963Z,0
2018-10-16T04:08:53.926Z,0
2018-10-16T04:10:03.303Z,0
2018-10-16T04:11:12.969Z,0
2018-10-16T04:12:22.889Z,0
2018-10-16T04:13:32.793Z,0
2018-10-16T04:14:42.461Z,0
2018-10-16T04:15:52.132Z,0
2018-10-16T04:17:02.023Z,0
2018-10-16T04:18:11.653Z,0
2018-10-16T04:19:21.544Z,0
2018-10-16T04:20:31.478Z,0
2018-10-16T04:21:41.417Z,0
2018-10-16T04:22:51.261Z,0
2018-10-16T04:24:01.518Z,0
2018-10-16T04:25:11.418Z,0
2018-10-16T04:26:21.592Z,0
2018-10-16T04:27:31.484Z,0
2018-10-16T04:28:41.101Z,0
2018-10-16T04:29:50.991Z,0
2018-10-16T04:31:00.338Z,0
2018-10-16T04:32:10.229Z,0
2018-10-16T04:33:20.396Z,0
2018-10-16T04:34:29.752Z,0
2018-10-16T04:35:39.096Z,0
2018-10-16T04:36:48.714Z,0
2018-10-16T04:37:58.877Z,0
2018-10-16T04:39:08.776Z,0
2018-10-16T04:40:18.399Z,0
2018-10-16T04:41:28.119Z,0
2018-10-16T04:42:37.751Z,0
2018-10-16T04:43:47.984Z,0
2018-10-16T04:44:58.448Z,0
2018-10-16T04:46:08.082Z,0
2018-10-16T04:47:17.701Z,0
2018-10-16T04:48:27.336Z,0
2018-10-16T04:49:36.686Z,0
2018-10-16T04:50:46.863Z,0
2018-10-16T04:51:56.753Z,0
2018-10-16T04:53:06.657Z,0
2018-10-16T04:54:16.831Z,0
2018-10-16T04:55:26.835Z,0
2018-10-16T04:56:36.729Z,0
2018-10-16T04:57:46.070Z,0
2018-10-16T04:58:56.237Z,0
2018-10-16T05:00:06.138Z,0
2018-10-16T05:01:16.023Z,0
2018-10-16T05:02:25.969Z,0
2018-10-16T05:03:35.585Z,0
2018-10-16T05:04:45.471Z,0
2018-10-16T05:05:55.360Z,0
2018-10-16T05:07:05.253Z,0
2018-10-16T05:08:15.467Z,0
2018-10-16T05:09:25.369Z,0
2018-10-16T05:10:34.992Z,0
2018-10-16T05:11:44.608Z,0
2018-10-16T05:12:54.776Z,0
2018-10-16T05:14:04.504Z,0
2018-10-16T05:15:14.117Z,0
2018-10-16T05:16:24.032Z,0
2018-10-16T05:17:33.929Z,0
2018-10-16T05:18:43.273Z,0
2018-10-16T05:19:53.425Z,0
2018-10-16T05:21:03.320Z,0
2018-10-16T05:22:13.221Z,0
2018-10-16T05:23:23.115Z,0
2018-10-16T05:24:33.004Z,0
2018-10-16T05:25:42.622Z,0
2018-10-16T05:26:52.295Z,0
2018-10-16T05:28:02.196Z,0
2018-10-16T05:29:11.643Z,0
2018-10-16T05:30:21.827Z,0
2018-10-16T05:31:32.427Z,0
2018-10-16T05:32:42.526Z,0
2018-10-16T05:33:52.155Z,0
2018-10-16T05:35:02.043Z,0
2018-10-16T05:36:11.931Z,0
2018-10-16T05:37:21.852Z,0
2018-10-16T05:38:31.742Z,0
2018-10-16T05:39:41.638Z,0
2018-10-16T05:40:51.044Z,0
2018-10-16T05:42:00.949Z,0
2018-10-16T05:43:10.574Z,0
2018-10-16T05:44:20.195Z,0
2018-10-16T05:45:30.418Z,0
2018-10-16T05:46:40.041Z,0
2018-10-16T05:47:49.932Z,0
2018-10-16T05:48:59.870Z,0
2018-10-16T05:50:09.762Z,0
2018-10-16T05:51:19.659Z,5
2018-10-16T05:52:29.554Z,5
2018-10-16T05:53:39.724Z,5
2018-10-16T05:54:49.905Z,5
2018-10-16T05:56:00.080Z,5
2018-10-16T05:57:09.984Z,5
2018-10-16T05:58:19.881Z,5
2018-10-16T05:59:29.776Z,5
2018-10-16T06:00:39.958Z,10
2018-10-16T06:01:50.137Z,10
2018-10-16T06:02:59.766Z,10
2018-10-16T06:04:09.658Z,10
2018-10-16T06:05:19.827Z,15
2018-10-16T06:06:29.466Z,15
2018-10-16T06:07:39.369Z,15
2018-10-16T06:08:48.988Z,15
2018-10-16T06:09:58.610Z,20
2018-10-16T06:11:08.351Z,20
2018-10-16T06:12:18.618Z,20
2018-10-16T06:13:28.919Z,25
2018-10-16T06:14:38.813Z,25
2018-10-16T06:15:48.759Z,25
2018-10-16T06:16:58.663Z,25
2018-10-16T06:18:08.858Z,30
2018-10-16T06:19:19.032Z,30
2018-10-16T06:20:28.935Z,30
2018-10-16T06:21:38.831Z,35
2018-10-16T06:22:48.448Z,35
2018-10-16T06:23:58.353Z,35
2018-10-16T06:25:07.972Z,40
2018-10-16T06:26:17.953Z,40
2018-10-16T06:27:27.590Z,45
2018-10-16T06:28:37.760Z,45
2018-10-16T06:29:47.927Z,50
2018-10-16T06:30:57.275Z,50
2018-10-16T06:32:07.442Z,55
2018-10-16T06:33:17.443Z,55
2018-10-16T06:34:27.345Z,60
2018-10-16T06:35:37.236Z,60
2018-10-16T06:36:46.854Z,65
2018-10-16T06:37:56.766Z,70
2018-10-16T06:39:06.937Z,70
2018-10-16T06:40:17.108Z,75
2018-10-16T06:41:28.123Z,75
2018-10-16T06:42:38.076Z,75
2018-10-16T06:43:47.745Z,75
2018-10-16T06:44:57.642Z,75
2018-10-16T06:46:07.814Z,75
2018-10-16T06:47:17.681Z,75
2018-10-16T06:48:30.273Z,80
2018-10-16T06:49:40.303Z,80
2018-10-16T06:50:50.186Z,85
2018-10-16T06:52:00.086Z,85
2018-10-16T06:53:09.840Z,90
2018-10-16T06:54:20.118Z,90
2018-10-16T06:55:29.885Z,95
2018-10-16T06:56:39.505Z,95
2018-10-16T06:57:48.850Z,95
2018-10-16T06:58:59.025Z,100
2018-10-16T07:00:09.236Z,100
2018-10-16T07:01:19.140Z,100
2018-10-16T07:02:29.045Z,100
2018-10-16T07:03:38.945Z,95
2018-10-16T07:04:48.612Z,95
2018-10-16T07:05:58.779Z,95
2018-10-16T07:07:09.698Z,95
2018-10-16T07:08:20.038Z,100
2018-10-16T07:09:29.941Z,105
2018-10-16T07:10:39.566Z,105
2018-10-16T07:11:49.467Z,105
2018-10-16T07:12:59.640Z,110
2018-10-16T07:14:09.537Z,110
2018-10-16T07:15:19.578Z,115
2018-10-16T07:16:29.465Z,115
2018-10-16T07:17:39.639Z,115
2018-10-16T07:18:49.264Z,120
2018-10-16T07:19:58.613Z,125
2018-10-16T07:21:08.674Z,130
2018-10-16T07:22:18.577Z,135
2018-10-16T07:23:29.241Z,140
2018-10-16T07:24:39.518Z,140
2018-10-16T07:25:49.419Z,145
2018-10-16T07:26:59.318Z,145
2018-10-16T07:28:08.949Z,145
2018-10-16T07:29:18.850Z,145
2018-10-16T07:30:29.033Z,145
2018-10-16T07:31:38.382Z,145
2018-10-16T07:32:48.285Z,145
2018-10-16T07:33:58.183Z,150
2018-10-16T07:35:08.086Z,150
2018-10-16T07:36:17.700Z,150
2018-10-16T07:37:27.337Z,155
2018-10-16T07:38:37.752Z,155
2018-10-16T07:39:47.677Z,155
2018-10-16T07:40:57.854Z,155
2018-10-16T07:42:08.029Z,155
2018-10-16T07:43:18.213Z,155
2018-10-16T07:44:28.378Z,155
2018-10-16T07:45:38.279Z,155
2018-10-16T07:46:48.479Z,155
2018-10-16T07:47:58.647Z,155
2018-10-16T07:49:08.549Z,155
2018-10-16T07:50:18.218Z,155
2018-10-16T07:51:28.184Z,155
2018-10-16T07:52:37.873Z,155
2018-10-16T07:53:47.778Z,155
2018-10-16T07:54:57.952Z,155
2018-10-16T07:56:07.574Z,155
2018-10-16T07:57:18.105Z,150
2018-10-16T07:58:27.862Z,150
2018-10-16T07:59:37.766Z,150
2018-10-16T08:00:47.937Z,155
2018-10-16T08:01:57.852Z,155
2018-10-16T08:03:07.747Z,160
2018-10-16T08:04:17.370Z,160
2018-10-16T08:05:27.271Z,160
2018-10-16T08:06:37.169Z,165
2018-10-16T08:07:46.792Z,170
2018-10-16T08:08:56.693Z,175
2018-10-16T08:10:06.589Z,175
2018-10-16T08:11:17.051Z,175
2018-10-16T08:12:26.870Z,175
2018-10-16T08:13:37.041Z,170
2018-10-16T08:14:47.213Z,170
2018-10-16T08:15:56.842Z,170
2018-10-16T08:17:06.292Z,170
2018-10-16T08:18:16.198Z,170
2018-10-16T08:19:26.424Z,170
2018-10-16T08:20:36.041Z,175
2018-10-16T08:21:45.937Z,175
2018-10-16T08:22:55.849Z,180
2018-10-16T08:24:05.753Z,180
2018-10-16T08:25:15.654Z,185
2018-10-16T08:26:25.825Z,190
2018-10-16T08:27:35.461Z,195
2018-10-16T08:28:45.632Z,195
2018-10-16T08:29:55.598Z,200
2018-10-16T08:31:04.938Z,200
2018-10-16T08:32:14.559Z,205
2018-10-16T08:33:24.483Z,195
2018-10-16T08:34:34.106Z,195
2018-10-16T08:35:43.819Z,190
2018-10-16T08:36:54.377Z,185
2018-10-16T08:38:03.125Z,185
2018-10-16T08:39:12.809Z,185
2018-10-16T08:40:22.974Z,180
2018-10-16T08:41:32.600Z,185
2018-10-16T08:42:42.782Z,185
2018-10-16T08:43:52.468Z,185
2018-10-16T08:45:03.372Z,190
2018-10-16T08:46:13.206Z,195
2018-10-16T08:47:23.315Z,200
2018-10-16T08:48:33.565Z,205
2018-10-16T08:49:43.458Z,215
2018-10-16T08:50:53.101Z,220
2018-10-16T08:52:03.056Z,225
2018-10-16T08:53:12.395Z,225
2018-10-16T08:54:22.288Z,230
2018-10-16T08:55:31.361Z,235
2018-10-16T08:56:40.985Z,225
2018-10-16T08:57:50.894Z,230
2018-10-16T08:59:00.787Z,230
2018-10-16T09:00:10.678Z,235
2018-10-16T09:01:20.673Z,245
2018-10-16T09:02:30.571Z,250
2018-10-16T09:03:39.642Z,265
2018-10-16T09:04:49.262Z,270
2018-10-16T09:05:58.891Z,275
2018-10-16T09:07:08.790Z,285
2018-10-16T09:08:18.969Z,285
2018-10-16T09:09:28.869Z,290
2018-10-16T09:10:39.039Z,300
2018-10-16T09:11:48.933Z,305
2018-10-16T09:12:58.923Z,315
2018-10-16T09:14:09.653Z,325
2018-10-16T09:15:19.651Z,335
2018-10-16T09:16:29.271Z,340
2018-10-16T09:17:38.882Z,345
2018-10-16T09:18:48.504Z,345
2018-10-16T09:19:58.132Z,350
2018-10-16T09:21:07.748Z,340
2018-10-16T09:22:17.647Z,345
2018-10-16T09:23:27.828Z,345
2018-10-16T09:24:37.354Z,340
2018-10-16T09:25:47.316Z,345
2018-10-16T09:26:57.222Z,350
2018-10-16T09:28:06.849Z,350
2018-10-16T09:29:16.744Z,335
2018-10-16T09:30:26.363Z,325
2018-10-16T09:31:36.261Z,320
2018-10-16T09:32:45.617Z,320
2018-10-16T09:33:55.804Z,320
2018-10-16T09:35:04.601Z,320
2018-10-16T09:36:14.502Z,325
2018-10-16T09:37:24.758Z,325
2018-10-16T09:38:34.380Z,325
2018-10-16T09:39:44.013Z,330
2018-10-16T09:40:53.942Z,335
2018-10-16T09:42:03.846Z,335
2018-10-16T09:43:14.009Z,335
2018-10-16T09:44:23.634Z,335
2018-10-16T09:45:33.251Z,340
2018-10-16T09:46:42.881Z,345
2018-10-16T09:47:53.051Z,345
2018-10-16T09:49:02.666Z,350
2018-10-16T09:50:12.307Z,350
2018-10-16T09:51:22.200Z,355
2018-10-16T09:52:31.824Z,355
2018-10-16T09:53:41.768Z,360
2018-10-16T09:54:51.678Z,365
2018-10-16T09:56:01.854Z,370
2018-10-16T09:57:11.749Z,375
2018-10-16T09:58:21.411Z,370
2018-10-16T09:59:31.589Z,365
2018-10-16T10:00:41.570Z,360
2018-10-16T10:01:51.190Z,355
2018-10-16T10:03:01.353Z,355
2018-10-16T10:04:11.246Z,355
2018-10-16T10:05:21.139Z,355
2018-10-16T10:06:31.036Z,355
2018-10-16T10:07:40.940Z,355
2018-10-16T10:08:50.837Z,355
2018-10-16T10:10:00.459Z,355
2018-10-16T10:11:10.983Z,350
2018-10-16T10:12:20.897Z,350
2018-10-16T10:13:31.064Z,360
2018-10-16T10:14:40.970Z,350
2018-10-16T10:15:50.627Z,350
2018-10-16T10:17:00.521Z,355
2018-10-16T10:18:10.144Z,360
2018-10-16T10:19:20.051Z,365
2018-10-16T10:20:29.942Z,375
2018-10-16T10:21:39.562Z,380
2018-10-16T10:22:49.185Z,385
2018-10-16T10:23:59.083Z,390
2018-10-16T10:25:08.827Z,390
2018-10-16T10:26:18.698Z,395
2018-10-16T10:27:27.774Z,395
2018-10-16T10:28:37.395Z,395
2018-10-16T10:29:47.992Z,390
2018-10-16T10:30:57.414Z,385
2018-10-16T10:32:06.760Z,380
2018-10-16T10:33:16.938Z,370
2018-10-16T10:34:27.102Z,360
2018-10-16T10:35:37.442Z,355
2018-10-16T10:36:47.136Z,355
2018-10-16T10:37:56.760Z,350
2018-10-16T10:39:06.102Z,350
2018-10-16T10:40:15.732Z,350
2018-10-16T10:41:25.619Z,355
2018-10-16T10:42:35.254Z,360
2018-10-16T10:43:44.883Z,360
2018-10-16T10:44:54.500Z,360
2018-10-16T10:46:04.170Z,355
2018-10-16T10:47:13.801Z,350
2018-10-16T10:48:23.702Z,350
2018-10-16T10:49:33.598Z,350
2018-10-16T10:50:44.160Z,350
2018-10-16T10:51:54.284Z,350
2018-10-16T10:53:04.177Z,350
2018-10-16T10:54:14.352Z,355
2018-10-16T10:55:24.247Z,360
2018-10-16T10:56:34.825Z,365
2018-10-16T10:57:44.814Z,375
2018-10-16T10:58:54.986Z,380
2018-10-16T11:00:05.154Z,385
2018-10-16T11:01:14.505Z,395
2018-10-16T11:02:24.687Z,395
2018-10-16T11:03:35.989Z,395
2018-10-16T11:04:46.228Z,395
2018-10-16T11:05:56.123Z,395
2018-10-16T11:07:06.034Z,395
2018-10-16T11:08:15.934Z,395
2018-10-16T11:09:26.000Z,390
2018-10-16T11:10:35.909Z,390
2018-10-16T11:11:45.807Z,385
2018-10-16T11:12:54.889Z,385
2018-10-16T11:14:05.068Z,385
2018-10-16T11:15:15.150Z,385
2018-10-16T11:16:25.384Z,385
2018-10-16T11:17:35.303Z,385
2018-10-16T11:18:45.199Z,385
2018-10-16T11:19:54.826Z,380
2018-10-16T11:21:04.615Z,385
2018-10-16T11:22:14.526Z,385
2018-10-16T11:23:24.431Z,390
2018-10-16T11:24:33.235Z,395
2018-10-16T11:25:42.857Z,395
2018-10-16T11:26:53.132Z,400
2018-10-16T11:28:03.320Z,400
2018-10-16T11:29:13.222Z,400
2018-10-16T11:30:23.267Z,395
2018-10-16T11:31:33.473Z,390
2018-10-16T11:32:43.092Z,385
2018-10-16T11:33:52.993Z,385
2018-10-16T11:35:03.172Z,385
2018-10-16T11:36:13.338Z,380
2018-10-16T11:37:22.693Z,380
2018-10-16T11:38:32.885Z,380
2018-10-16T11:39:42.501Z,380
2018-10-16T11:40:52.678Z,385
2018-10-16T11:42:02.300Z,390
2018-10-16T11:43:11.370Z,395
2018-10-16T11:44:21.281Z,405
2018-10-16T11:45:31.528Z,415
2018-10-16T11:46:41.772Z,420
2018-10-16T11:47:51.949Z,440
2018-10-16T11:49:01.850Z,435
2018-10-16T11:50:12.359Z,440
2018-10-16T11:51:22.291Z,450
2018-10-16T11:52:32.350Z,465
2018-10-16T11:53:42.532Z,470
2018-10-16T11:54:52.440Z,485
2018-10-16T11:56:02.831Z,495
2018-10-16T11:57:12.522Z,540
2018-10-16T11:58:22.697Z,645
2018-10-16T11:59:31.777Z,575
2018-10-16T12:00:41.397Z,575
2018-10-16T12:01:50.807Z,555
2018-10-16T12:03:00.441Z,550
2018-10-16T12:04:09.797Z,575
2018-10-16T12:05:19.981Z,655
2018-10-16T12:06:29.892Z,645
2018-10-16T12:07:39.511Z,635
2018-10-16T12:08:49.416Z,580
2018-10-16T12:09:59.593Z,570
2018-10-16T12:11:09.877Z,580
2018-10-16T12:12:20.079Z,570
2018-10-16T12:13:29.428Z,545
2018-10-16T12:14:39.058Z,535
2018-10-16T12:15:48.955Z,525
2018-10-16T12:16:59.037Z,520
2018-10-16T12:18:08.664Z,520
2018-10-16T12:19:19.197Z,530
2018-10-16T12:20:28.571Z,500
2018-10-16T12:21:38.469Z,480
2018-10-16T12:22:48.102Z,465
2018-10-16T12:23:58.736Z,460
2018-10-16T12:25:08.623Z,465
2018-10-16T12:26:18.560Z,460
2018-10-16T12:27:28.733Z,460
2018-10-16T12:28:38.633Z,460
2018-10-16T12:29:48.542Z,460
2018-10-16T12:30:58.900Z,460
2018-10-16T12:32:08.793Z,455
2018-10-16T12:33:19.277Z,455
2018-10-16T12:34:28.913Z,455
2018-10-16T12:35:38.810Z,455
2018-10-16T12:36:48.989Z,450
2018-10-16T12:37:58.667Z,455
2018-10-16T12:39:08.178Z,460
2018-10-16T12:40:18.719Z,460
2018-10-16T12:41:28.691Z,465
2018-10-16T12:42:38.376Z,470
2018-10-16T12:43:49.151Z,470
2018-10-16T12:44:59.520Z,470
2018-10-16T12:46:10.080Z,460
2018-10-16T12:47:20.031Z,455
2018-10-16T12:48:29.935Z,455
2018-10-16T12:49:39.876Z,460
2018-10-16T12:50:50.053Z,460
2018-10-16T12:51:59.413Z,470
2018-10-16T12:53:09.985Z,480
2018-10-16T12:54:20.521Z,495
2018-10-16T12:55:30.422Z,505
2018-10-16T12:56:40.399Z,540
2018-10-16T12:57:49.769Z,535
2018-10-16T12:58:59.880Z,520
2018-10-16T13:00:10.309Z,540
2018-10-16T13:01:20.141Z,530
2018-10-16T13:02:30.333Z,530
2018-10-16T13:03:40.901Z,535
2018-10-16T13:04:51.252Z,535
2018-10-16T13:06:01.149Z,535
2018-10-16T13:07:10.767Z,535
2018-10-16T13:08:20.927Z,535
2018-10-16T13:09:31.105Z,530
2018-10-16T13:10:41.294Z,535
2018-10-16T13:11:51.206Z,540
2018-10-16T13:13:00.861Z,535
2018-10-16T13:14:10.998Z,530
2018-10-16T13:15:21.309Z,525
2018-10-16T13:16:31.211Z,525
2018-10-16T13:17:41.178Z,520
2018-10-16T13:18:50.797Z,530
2018-10-16T13:20:01.317Z,530
2018-10-16T13:21:10.886Z,540
2018-10-16T13:22:20.660Z,515
2018-10-16T13:23:30.538Z,510
2018-10-16T13:24:40.122Z,510
2018-10-16T13:25:50.022Z,510
2018-10-16T13:27:00.205Z,500
2018-10-16T13:28:10.626Z,500
2018-10-16T13:29:21.278Z,495
2018-10-16T13:30:31.282Z,490
2018-10-16T13:31:40.638Z,490
2018-10-16T13:32:50.555Z,485
2018-10-16T13:34:00.916Z,485
2018-10-16T13:35:11.221Z,485
2018-10-16T13:36:20.557Z,490
2018-10-16T13:37:30.453Z,490
2018-10-16T13:38:40.640Z,490
2018-10-16T13:39:50.281Z,490
2018-10-16T13:40:59.620Z,490
2018-10-16T13:42:09.794Z,490
2018-10-16T13:43:19.415Z,495
2018-10-16T13:44:29.315Z,495
2018-10-16T13:45:39.221Z,500
2018-10-16T13:46:49.402Z,510
2018-10-16T13:47:59.627Z,525
2018-10-16T13:49:09.519Z,515
2018-10-16T13:50:20.168Z,525
2018-10-16T13:51:30.341Z,530
2018-10-16T13:52:40.511Z,515
2018-10-16T13:53:50.198Z,520
2018-10-16T13:55:00.110Z,545
2018-10-16T13:56:10.582Z,510
2018-10-16T13:57:20.574Z,520
2018-10-16T13:58:30.485Z,530
2018-10-16T13:59:40.104Z,695
2018-10-16T14:00:50.011Z,700
2018-10-16T14:01:59.487Z,570
2018-10-16T14:03:09.177Z,555
2018-10-16T14:04:19.013Z,625
2018-10-16T14:05:28.907Z,910
2018-10-16T14:06:38.810Z,825
2018-10-16T14:07:48.437Z,655
2018-10-16T14:08:58.352Z,575
2018-10-16T14:10:09.041Z,505
2018-10-16T14:11:18.485Z,495
2018-10-16T14:12:28.112Z,525
2018-10-16T14:13:38.018Z,525
2018-10-16T14:14:48.195Z,560
2018-10-16T14:15:58.231Z,585
2018-10-16T14:17:08.520Z,610
2018-10-16T14:18:18.689Z,525
2018-10-16T14:19:28.593Z,470
2018-10-16T14:20:38.498Z,460
2018-10-16T14:21:48.127Z,455
2018-10-16T14:22:58.024Z,440
2018-10-16T14:24:07.923Z,425
2018-10-16T14:25:18.108Z,415
2018-10-16T14:26:27.877Z,430
2018-10-16T14:27:37.569Z,400
2018-10-16T14:28:47.462Z,390
2018-10-16T14:29:57.364Z,390
2018-10-16T14:31:06.990Z,390
2018-10-16T14:32:18.004Z,390
2018-10-16T14:33:27.936Z,390
2018-10-16T14:34:38.910Z,400
2018-10-16T14:35:48.955Z,420
2018-10-16T14:36:58.897Z,465
2018-10-16T14:38:09.202Z,500
2018-10-16T14:39:18.627Z,450
2018-10-16T14:40:28.599Z,475
2018-10-16T14:41:38.502Z,515
2018-10-16T14:42:48.663Z,585
2018-10-16T14:43:58.631Z,545
2018-10-16T14:45:08.869Z,435
2018-10-16T14:46:18.839Z,410
2018-10-16T14:47:28.740Z,395
2018-10-16T14:48:38.649Z,395
2018-10-16T14:49:48.831Z,410
2018-10-16T14:50:58.183Z,380
2018-10-16T14:52:08.768Z,370
2018-10-16T14:53:19.010Z,340
2018-10-16T14:54:28.913Z,330
2018-10-16T14:55:38.552Z,320
2018-10-16T14:56:48.203Z,320
2018-10-16T14:57:57.726Z,320
2018-10-16T14:59:07.639Z,305
2018-10-16T15:00:17.265Z,295
2018-10-16T15:01:27.164Z,280
2018-10-16T15:02:37.061Z,265
2018-10-16T15:03:47.029Z,255
2018-10-16T15:04:57.227Z,250
2018-10-16T15:06:07.138Z,245
2018-10-16T15:07:16.760Z,250
2018-10-16T15:08:26.933Z,240
2018-10-16T15:09:36.846Z,230
2018-10-16T15:10:46.489Z,230
2018-10-16T15:11:56.659Z,215
2018-10-16T15:13:06.280Z,210
2018-10-16T15:14:17.066Z,205
2018-10-16T15:15:27.022Z,200
2018-10-16T15:16:36.967Z,190
2018-10-16T15:17:46.554Z,185
2018-10-16T15:18:56.181Z,180
2018-10-16T15:20:06.194Z,170
2018-10-16T15:21:16.156Z,165
2018-10-16T15:22:26.246Z,155
2018-10-16T15:23:36.410Z,150
2018-10-16T15:24:46.647Z,145
2018-10-16T15:25:56.870Z,145
2018-10-16T15:27:06.508Z,145
2018-10-16T15:28:17.374Z,140
2018-10-16T15:29:27.692Z,140
2018-10-16T15:30:37.856Z,145
2018-10-16T15:31:47.757Z,150
2018-10-16T15:32:57.377Z,155
2018-10-16T15:34:07.600Z,160
2018-10-16T15:35:17.576Z,160
2018-10-16T15:36:27.798Z,155
2018-10-16T15:37:37.688Z,155
2018-10-16T15:38:47.034Z,150
2018-10-16T15:39:57.282Z,145
2018-10-16T15:41:07.688Z,140
2018-10-16T15:42:18.024Z,135
2018-10-16T15:43:28.217Z,135
2018-10-16T15:44:38.113Z,125
2018-10-16T15:45:48.294Z,120
2018-10-16T15:46:57.922Z,115
2018-10-16T15:48:07.876Z,110
2018-10-16T15:49:18.182Z,100
2018-10-16T15:50:28.085Z,100
2018-10-16T15:51:37.987Z,95
2018-10-16T15:52:48.176Z,85
2018-10-16T15:53:57.881Z,80
2018-10-16T15:55:07.499Z,75
2018-10-16T15:56:17.687Z,65
2018-10-16T15:57:27.325Z,60
2018-10-16T15:58:37.496Z,55
2018-10-16T15:59:47.668Z,55
2018-10-16T16:00:57.334Z,50
2018-10-16T16:02:07.927Z,45
2018-10-16T16:03:17.196Z,45
2018-10-16T16:04:27.372Z,40
2018-10-16T16:05:37.539Z,35
2018-10-16T16:06:47.159Z,35
2018-10-16T16:07:57.108Z,30
2018-10-16T16:09:07.403Z,30
2018-10-16T16:10:17.437Z,30
2018-10-16T16:11:27.349Z,25
2018-10-16T16:12:37.799Z,25
2018-10-16T16:13:47.778Z,20
2018-10-16T16:14:57.945Z,20
2018-10-16T16:16:08.551Z,20
2018-10-16T16:17:18.493Z,20
2018-10-16T16:18:29.113Z,15
2018-10-16T16:19:38.888Z,15
2018-10-16T16:20:49.059Z,15
2018-10-16T16:21:59.052Z,15
2018-10-16T16:23:08.957Z,15
2018-10-16T16:24:18.871Z,10
2018-10-16T16:25:28.776Z,10
2018-10-16T16:26:38.131Z,10
2018-10-16T16:27:47.486Z,10
2018-10-16T16:28:57.390Z,10
2018-10-16T16:30:07.619Z,10
2018-10-16T16:31:17.462Z,10